sensor_id;sensor_type;location;lat;lon;timestamp;temperature;humidity
1413;DHT22;701;52.526;13.408;2023-06-26T00:01:26;21.50;25.10
1413;DHT22;701;52.526;13.408;2023-06-26T00:03:55;21.50;25.20
1413;DHT22;701;52.526;13.408;2023-06-26T00:06:21;21.50;25.30
1413;DHT22;701;52.526;13.408;2023-06-26T00:08:50;21.40;25.40
1413;DHT22;701;52.526;13.408;2023-06-26T00:11:16;21.40;25.60
1413;DHT22;701;52.526;13.408;2023-06-26T00:13:42;21.40;25.70
1413;DHT22;701;52.526;13.408;2023-06-26T00:16:07;21.40;26.10
1413;DHT22;701;52.526;13.408;2023-06-26T00:18:33;21.40;26.20
1413;DHT22;701;52.526;13.408;2023-06-26T00:20:59;21.40;26.30
1413;DHT22;701;52.526;13.408;2023-06-26T00:23:24;21.30;26.20
1413;DHT22;701;52.526;13.408;2023-06-26T00:25:50;21.30;26.40
1413;DHT22;701;52.526;13.408;2023-06-26T00:28:16;21.30;26.80
1413;DHT22;701;52.526;13.408;2023-06-26T00:30:42;21.30;26.80
1413;DHT22;701;52.526;13.408;2023-06-26T00:33:08;21.30;27.00
1413;DHT22;701;52.526;13.408;2023-06-26T00:35:34;21.30;27.30
1413;DHT22;701;52.526;13.408;2023-06-26T00:38:03;21.20;27.50
1413;DHT22;701;52.526;13.408;2023-06-26T00:40:29;21.20;27.80
1413;DHT22;701;52.526;13.408;2023-06-26T00:42:56;21.20;28.00
1413;DHT22;701;52.526;13.408;2023-06-26T00:45:22;21.20;28.00
1413;DHT22;701;52.526;13.408;2023-06-26T00:47:48;21.20;28.00
1413;DHT22;701;52.526;13.408;2023-06-26T00:50:14;21.20;27.90
1413;DHT22;701;52.526;13.408;2023-06-26T00:52:41;21.20;28.00
1413;DHT22;701;52.526;13.408;2023-06-26T00:55:07;21.10;28.10
1413;DHT22;701;52.526;13.408;2023-06-26T00:57:35;21.20;28.20
1413;DHT22;701;52.526;13.408;2023-06-26T01:00:02;21.20;28.70
1413;DHT22;701;52.526;13.408;2023-06-26T01:02:30;21.20;28.70
1413;DHT22;701;52.526;13.408;2023-06-26T01:05:02;21.20;28.60
1413;DHT22;701;52.526;13.408;2023-06-26T01:07:34;21.30;28.70
1413;DHT22;701;52.526;13.408;2023-06-26T01:10:03;21.30;28.60
1413;DHT22;701;52.526;13.408;2023-06-26T01:12:31;21.40;28.60
1413;DHT22;701;52.526;13.408;2023-06-26T01:14:59;21.40;28.60
1413;DHT22;701;52.526;13.408;2023-06-26T01:17:27;21.40;28.60
1413;DHT22;701;52.526;13.408;2023-06-26T01:19:58;21.50;28.60
1413;DHT22;701;52.526;13.408;2023-06-26T01:22:47;21.50;28.60
1413;DHT22;701;52.526;13.408;2023-06-26T01:28:07;21.50;28.20
1413;DHT22;701;52.526;13.408;2023-06-26T01:30:37;21.60;28.30
1413;DHT22;701;52.526;13.408;2023-06-26T01:33:04;21.60;28.30
1413;DHT22;701;52.526;13.408;2023-06-26T01:35:30;21.60;28.30
1413;DHT22;701;52.526;13.408;2023-06-26T01:38:32;21.60;28.30
1413;DHT22;701;52.526;13.408;2023-06-26T01:40:58;21.60;28.20
1413;DHT22;701;52.526;13.408;2023-06-26T01:43:29;21.60;28.30
1413;DHT22;701;52.526;13.408;2023-06-26T01:46:04;21.60;28.20
1413;DHT22;701;52.526;13.408;2023-06-26T01:48:34;21.50;28.20
1413;DHT22;701;52.526;13.408;2023-06-26T01:51:04;21.60;28.30
1413;DHT22;701;52.526;13.408;2023-06-26T01:53:38;21.50;28.10
1413;DHT22;701;52.526;13.408;2023-06-26T01:56:11;21.50;28.20
1413;DHT22;701;52.526;13.408;2023-06-26T01:58:41;21.50;28.20
1413;DHT22;701;52.526;13.408;2023-06-26T02:01:09;21.50;28.20
1413;DHT22;701;52.526;13.408;2023-06-26T02:03:35;21.50;28.20
1413;DHT22;701;52.526;13.408;2023-06-26T02:06:01;21.40;28.30
1413;DHT22;701;52.526;13.408;2023-06-26T02:08:27;21.40;28.70
1413;DHT22;701;52.526;13.408;2023-06-26T02:10:55;21.40;28.80
1413;DHT22;701;52.526;13.408;2023-06-26T02:13:21;21.40;29.10
1413;DHT22;701;52.526;13.408;2023-06-26T02:15:47;21.40;29.30
1413;DHT22;701;52.526;13.408;2023-06-26T02:18:13;21.40;29.30
1413;DHT22;701;52.526;13.408;2023-06-26T02:20:39;21.40;29.30
1413;DHT22;701;52.526;13.408;2023-06-26T02:23:05;21.40;29.60
1413;DHT22;701;52.526;13.408;2023-06-26T02:25:31;21.40;29.40
1413;DHT22;701;52.526;13.408;2023-06-26T02:27:57;21.40;29.50
1413;DHT22;701;52.526;13.408;2023-06-26T02:30:22;21.40;29.50
1413;DHT22;701;52.526;13.408;2023-06-26T02:32:48;21.30;29.50
1413;DHT22;701;52.526;13.408;2023-06-26T02:35:14;21.30;29.50
1413;DHT22;701;52.526;13.408;2023-06-26T02:37:41;21.30;29.50
1413;DHT22;701;52.526;13.408;2023-06-26T02:40:08;21.30;29.70
1413;DHT22;701;52.526;13.408;2023-06-26T02:42:37;21.30;29.70
1413;DHT22;701;52.526;13.408;2023-06-26T02:45:04;21.30;29.70
1413;DHT22;701;52.526;13.408;2023-06-26T02:47:31;21.30;29.90
1413;DHT22;701;52.526;13.408;2023-06-26T02:49:57;21.30;29.70
1413;DHT22;701;52.526;13.408;2023-06-26T02:52:23;21.30;29.60
1413;DHT22;701;52.526;13.408;2023-06-26T02:54:49;21.30;29.70
1413;DHT22;701;52.526;13.408;2023-06-26T02:57:14;21.30;29.60
1413;DHT22;701;52.526;13.408;2023-06-26T02:59:42;21.30;29.70
1413;DHT22;701;52.526;13.408;2023-06-26T03:02:09;21.30;29.70
1413;DHT22;701;52.526;13.408;2023-06-26T03:04:42;21.30;29.60
1413;DHT22;701;52.526;13.408;2023-06-26T03:07:11;21.20;29.60
1413;DHT22;701;52.526;13.408;2023-06-26T03:09:38;21.20;29.70
1413;DHT22;701;52.526;13.408;2023-06-26T03:12:05;21.20;29.70
1413;DHT22;701;52.526;13.408;2023-06-26T03:14:32;21.10;29.80
1413;DHT22;701;52.526;13.408;2023-06-26T03:16:58;21.10;29.90
1413;DHT22;701;52.526;13.408;2023-06-26T03:19:29;21.10;30.00
1413;DHT22;701;52.526;13.408;2023-06-26T03:22:14;21.00;30.00
1413;DHT22;701;52.526;13.408;2023-06-26T03:24:40;21.00;30.00
1413;DHT22;701;52.526;13.408;2023-06-26T03:27:07;21.00;30.00
1413;DHT22;701;52.526;13.408;2023-06-26T03:29:35;21.00;30.10
1413;DHT22;701;52.526;13.408;2023-06-26T03:32:01;21.00;30.10
1413;DHT22;701;52.526;13.408;2023-06-26T03:34:27;21.00;30.20
1413;DHT22;701;52.526;13.408;2023-06-26T03:36:54;21.00;30.30
1413;DHT22;701;52.526;13.408;2023-06-26T03:39:19;21.00;30.30
1413;DHT22;701;52.526;13.408;2023-06-26T03:41:46;21.00;30.40
1413;DHT22;701;52.526;13.408;2023-06-26T03:44:12;21.00;30.40
1413;DHT22;701;52.526;13.408;2023-06-26T03:46:44;21.00;30.50
1413;DHT22;701;52.526;13.408;2023-06-26T03:49:10;21.10;30.40
1413;DHT22;701;52.526;13.408;2023-06-26T03:51:37;21.20;30.30
1413;DHT22;701;52.526;13.408;2023-06-26T03:54:03;21.30;30.00
1413;DHT22;701;52.526;13.408;2023-06-26T03:56:28;21.40;29.90
1413;DHT22;701;52.526;13.408;2023-06-26T03:58:54;21.60;29.60
1413;DHT22;701;52.526;13.408;2023-06-26T04:01:20;21.70;29.20
1413;DHT22;701;52.526;13.408;2023-06-26T04:03:48;21.80;28.70
1413;DHT22;701;52.526;13.408;2023-06-26T04:06:14;22.00;28.50
1413;DHT22;701;52.526;13.408;2023-06-26T04:08:40;22.10;28.00
1413;DHT22;701;52.526;13.408;2023-06-26T04:11:05;22.30;27.50
1413;DHT22;701;52.526;13.408;2023-06-26T04:13:32;22.40;27.10
1413;DHT22;701;52.526;13.408;2023-06-26T04:15:57;22.50;26.50
1413;DHT22;701;52.526;13.408;2023-06-26T04:18:23;22.60;26.10
1413;DHT22;701;52.526;13.408;2023-06-26T04:21:08;22.70;25.30
1413;DHT22;701;52.526;13.408;2023-06-26T04:23:35;23.00;25.00
1413;DHT22;701;52.526;13.408;2023-06-26T04:26:01;23.00;24.50
1413;DHT22;701;52.526;13.408;2023-06-26T04:28:28;23.20;24.00
1413;DHT22;701;52.526;13.408;2023-06-26T04:30:54;23.30;23.50
1413;DHT22;701;52.526;13.408;2023-06-26T04:33:20;23.50;23.00
1413;DHT22;701;52.526;13.408;2023-06-26T04:35:45;23.60;22.60
1413;DHT22;701;52.526;13.408;2023-06-26T04:38:14;23.70;22.30
1413;DHT22;701;52.526;13.408;2023-06-26T04:40:41;23.70;21.60
1413;DHT22;701;52.526;13.408;2023-06-26T04:43:07;23.80;21.00
1413;DHT22;701;52.526;13.408;2023-06-26T04:45:32;23.90;20.60
1413;DHT22;701;52.526;13.408;2023-06-26T04:47:58;24.00;20.10
1413;DHT22;701;52.526;13.408;2023-06-26T04:50:26;24.00;20.20
1413;DHT22;701;52.526;13.408;2023-06-26T04:52:55;24.20;19.50
1413;DHT22;701;52.526;13.408;2023-06-26T04:55:20;24.30;19.00
1413;DHT22;701;52.526;13.408;2023-06-26T04:57:47;24.30;19.00
1413;DHT22;701;52.526;13.408;2023-06-26T05:00:13;24.40;19.00
1413;DHT22;701;52.526;13.408;2023-06-26T05:02:40;24.50;18.70
1413;DHT22;701;52.526;13.408;2023-06-26T05:05:06;24.50;18.50
1413;DHT22;701;52.526;13.408;2023-06-26T05:07:35;24.70;18.30
1413;DHT22;701;52.526;13.408;2023-06-26T05:10:01;24.90;18.00
1413;DHT22;701;52.526;13.408;2023-06-26T05:12:27;25.10;17.60
1413;DHT22;701;52.526;13.408;2023-06-26T05:14:52;25.30;17.10
1413;DHT22;701;52.526;13.408;2023-06-26T05:17:18;25.50;16.50
1413;DHT22;701;52.526;13.408;2023-06-26T05:19:44;25.70;16.00
1413;DHT22;701;52.526;13.408;2023-06-26T05:22:11;25.70;15.30
1413;DHT22;701;52.526;13.408;2023-06-26T05:24:38;25.90;14.60
1413;DHT22;701;52.526;13.408;2023-06-26T05:27:05;26.00;14.20
1413;DHT22;701;52.526;13.408;2023-06-26T05:29:32;26.00;13.90
1413;DHT22;701;52.526;13.408;2023-06-26T05:31:59;26.10;13.60
1413;DHT22;701;52.526;13.408;2023-06-26T05:34:25;26.20;13.40
1413;DHT22;701;52.526;13.408;2023-06-26T05:36:58;26.30;12.90
1413;DHT22;701;52.526;13.408;2023-06-26T05:39:24;26.40;12.60
1413;DHT22;701;52.526;13.408;2023-06-26T05:41:50;26.50;11.80
1413;DHT22;701;52.526;13.408;2023-06-26T05:44:16;26.60;11.90
1413;DHT22;701;52.526;13.408;2023-06-26T05:46:43;26.70;11.50
1413;DHT22;701;52.526;13.408;2023-06-26T05:49:09;26.70;11.10
1413;DHT22;701;52.526;13.408;2023-06-26T05:51:35;26.70;11.10
1413;DHT22;701;52.526;13.408;2023-06-26T05:54:01;26.60;11.30
1413;DHT22;701;52.526;13.408;2023-06-26T05:56:27;26.40;11.10
1413;DHT22;701;52.526;13.408;2023-06-26T05:58:53;26.30;11.40
1413;DHT22;701;52.526;13.408;2023-06-26T06:01:20;26.20;11.40
1413;DHT22;701;52.526;13.408;2023-06-26T06:03:46;26.10;11.50
1413;DHT22;701;52.526;13.408;2023-06-26T06:06:12;26.00;11.60
1413;DHT22;701;52.526;13.408;2023-06-26T06:08:38;25.90;11.50
1413;DHT22;701;52.526;13.408;2023-06-26T06:11:04;25.90;11.40
1413;DHT22;701;52.526;13.408;2023-06-26T06:13:29;25.80;11.00
1413;DHT22;701;52.526;13.408;2023-06-26T06:15:55;25.70;11.10
1413;DHT22;701;52.526;13.408;2023-06-26T06:18:21;25.80;11.20
1413;DHT22;701;52.526;13.408;2023-06-26T06:20:47;25.70;10.80
1413;DHT22;701;52.526;13.408;2023-06-26T06:23:13;25.70;10.80
1413;DHT22;701;52.526;13.408;2023-06-26T06:25:39;25.70;10.80
1413;DHT22;701;52.526;13.408;2023-06-26T06:28:05;25.70;10.60
1413;DHT22;701;52.526;13.408;2023-06-26T06:30:31;25.70;10.70
1413;DHT22;701;52.526;13.408;2023-06-26T06:32:58;25.80;10.60
1413;DHT22;701;52.526;13.408;2023-06-26T06:35:23;25.90;10.60
1413;DHT22;701;52.526;13.408;2023-06-26T06:37:50;26.00;10.50
1413;DHT22;701;52.526;13.408;2023-06-26T06:40:16;26.10;10.20
1413;DHT22;701;52.526;13.408;2023-06-26T06:42:42;26.60;9.90
1413;DHT22;701;52.526;13.408;2023-06-26T06:45:08;28.10;8.30
1413;DHT22;701;52.526;13.408;2023-06-26T06:47:34;30.20;4.50
1413;DHT22;701;52.526;13.408;2023-06-26T06:50:01;32.40;1.00
1413;DHT22;701;52.526;13.408;2023-06-26T06:52:38;34.40;1.00
1413;DHT22;701;52.526;13.408;2023-06-26T06:55:04;36.30;1.00
1413;DHT22;701;52.526;13.408;2023-06-26T06:57:38;38.00;1.00
1413;DHT22;701;52.526;13.408;2023-06-26T07:00:06;39.40;1.00
1413;DHT22;701;52.526;13.408;2023-06-26T07:02:35;40.70;1.00
1413;DHT22;701;52.526;13.408;2023-06-26T07:05:02;41.70;1.00
1413;DHT22;701;52.526;13.408;2023-06-26T07:07:30;42.80;1.00
1413;DHT22;701;52.526;13.408;2023-06-26T07:09:59;43.80;1.00
1413;DHT22;701;52.526;13.408;2023-06-26T07:12:24;44.60;1.00
1413;DHT22;701;52.526;13.408;2023-06-26T07:14:50;45.30;1.00
1413;DHT22;701;52.526;13.408;2023-06-26T07:17:16;46.10;1.00
1413;DHT22;701;52.526;13.408;2023-06-26T07:19:41;46.80;1.00
1413;DHT22;701;52.526;13.408;2023-06-26T07:22:07;47.50;1.00
1413;DHT22;701;52.526;13.408;2023-06-26T07:24:33;48.10;1.00
1413;DHT22;701;52.526;13.408;2023-06-26T07:26:59;48.40;1.00
1413;DHT22;701;52.526;13.408;2023-06-26T07:29:26;48.80;1.00
1413;DHT22;701;52.526;13.408;2023-06-26T07:31:52;49.30;1.00
1413;DHT22;701;52.526;13.408;2023-06-26T07:34:17;49.70;1.00
1413;DHT22;701;52.526;13.408;2023-06-26T07:36:43;50.20;1.00
1413;DHT22;701;52.526;13.408;2023-06-26T07:39:09;50.70;1.00
1413;DHT22;701;52.526;13.408;2023-06-26T07:41:34;51.10;1.00
1413;DHT22;701;52.526;13.408;2023-06-26T07:44:00;51.00;1.00
1413;DHT22;701;52.526;13.408;2023-06-26T07:46:26;50.80;1.00
1413;DHT22;701;52.526;13.408;2023-06-26T07:48:52;51.00;1.00
1413;DHT22;701;52.526;13.408;2023-06-26T07:51:18;51.30;1.00
1413;DHT22;701;52.526;13.408;2023-06-26T07:53:43;51.30;1.00
1413;DHT22;701;52.526;13.408;2023-06-26T07:56:09;51.50;1.00
1413;DHT22;701;52.526;13.408;2023-06-26T07:58:35;51.70;1.00
1413;DHT22;701;52.526;13.408;2023-06-26T08:01:00;51.90;1.00
1413;DHT22;701;52.526;13.408;2023-06-26T08:03:26;52.10;1.00
1413;DHT22;701;52.526;13.408;2023-06-26T08:05:52;52.40;1.00
1413;DHT22;701;52.526;13.408;2023-06-26T08:08:18;53.00;1.00
1413;DHT22;701;52.526;13.408;2023-06-26T08:10:43;53.20;1.00
1413;DHT22;701;52.526;13.408;2023-06-26T08:13:09;53.20;1.00
1413;DHT22;701;52.526;13.408;2023-06-26T08:15:35;53.40;1.00
1413;DHT22;701;52.526;13.408;2023-06-26T08:18:01;53.60;1.00
1413;DHT22;701;52.526;13.408;2023-06-26T08:20:27;53.90;1.00
1413;DHT22;701;52.526;13.408;2023-06-26T08:22:53;54.00;1.00
1413;DHT22;701;52.526;13.408;2023-06-26T08:25:20;54.20;1.00
1413;DHT22;701;52.526;13.408;2023-06-26T08:27:46;54.20;1.00
1413;DHT22;701;52.526;13.408;2023-06-26T08:30:12;54.10;1.00
1413;DHT22;701;52.526;13.408;2023-06-26T08:32:39;54.00;1.00
1413;DHT22;701;52.526;13.408;2023-06-26T08:35:06;54.10;1.00
1413;DHT22;701;52.526;13.408;2023-06-26T08:37:32;54.20;1.00
1413;DHT22;701;52.526;13.408;2023-06-26T08:39:59;54.50;1.00
1413;DHT22;701;52.526;13.408;2023-06-26T08:42:25;54.80;1.00
1413;DHT22;701;52.526;13.408;2023-06-26T08:44:51;54.80;1.00
1413;DHT22;701;52.526;13.408;2023-06-26T08:47:18;54.70;1.00
1413;DHT22;701;52.526;13.408;2023-06-26T08:49:53;54.80;1.00
1413;DHT22;701;52.526;13.408;2023-06-26T08:52:33;54.90;1.00
1413;DHT22;701;52.526;13.408;2023-06-26T08:55:02;54.80;1.00
1413;DHT22;701;52.526;13.408;2023-06-26T08:57:32;54.90;1.00
1413;DHT22;701;52.526;13.408;2023-06-26T08:59:58;54.90;1.00
1413;DHT22;701;52.526;13.408;2023-06-26T09:02:24;54.80;1.00
1413;DHT22;701;52.526;13.408;2023-06-26T09:04:51;54.60;1.00
1413;DHT22;701;52.526;13.408;2023-06-26T09:07:17;54.50;1.00
1413;DHT22;701;52.526;13.408;2023-06-26T09:09:43;54.40;1.00
1413;DHT22;701;52.526;13.408;2023-06-26T09:12:09;54.10;1.00
1413;DHT22;701;52.526;13.408;2023-06-26T09:14:36;54.10;1.00
1413;DHT22;701;52.526;13.408;2023-06-26T09:17:03;53.80;1.00
1413;DHT22;701;52.526;13.408;2023-06-26T09:19:28;53.80;1.00
1413;DHT22;701;52.526;13.408;2023-06-26T09:21:55;53.60;1.00
1413;DHT22;701;52.526;13.408;2023-06-26T09:24:22;53.60;1.00
1413;DHT22;701;52.526;13.408;2023-06-26T09:26:49;53.60;1.00
1413;DHT22;701;52.526;13.408;2023-06-26T09:29:17;53.70;1.00
1413;DHT22;701;52.526;13.408;2023-06-26T09:31:44;53.60;1.00
1413;DHT22;701;52.526;13.408;2023-06-26T09:34:10;53.50;1.00
1413;DHT22;701;52.526;13.408;2023-06-26T09:36:36;53.50;1.00
1413;DHT22;701;52.526;13.408;2023-06-26T09:39:03;53.30;1.00
1413;DHT22;701;52.526;13.408;2023-06-26T09:41:36;53.30;1.00
1413;DHT22;701;52.526;13.408;2023-06-26T09:44:05;53.10;1.00
1413;DHT22;701;52.526;13.408;2023-06-26T09:46:32;52.70;1.00
1413;DHT22;701;52.526;13.408;2023-06-26T09:51:35;52.20;1.00
1413;DHT22;701;52.526;13.408;2023-06-26T09:54:02;51.60;1.00
1413;DHT22;701;52.526;13.408;2023-06-26T09:56:28;51.20;1.00
1413;DHT22;701;52.526;13.408;2023-06-26T09:59:03;50.80;1.00
1413;DHT22;701;52.526;13.408;2023-06-26T10:01:31;50.50;1.00
1413;DHT22;701;52.526;13.408;2023-06-26T10:03:57;50.10;1.00
1413;DHT22;701;52.526;13.408;2023-06-26T10:06:35;49.90;1.00
1413;DHT22;701;52.526;13.408;2023-06-26T10:09:02;49.40;1.00
1413;DHT22;701;52.526;13.408;2023-06-26T10:11:37;49.00;1.00
1413;DHT22;701;52.526;13.408;2023-06-26T10:14:07;48.60;1.00
1413;DHT22;701;52.526;13.408;2023-06-26T10:16:35;48.40;1.00
1413;DHT22;701;52.526;13.408;2023-06-26T10:19:05;47.90;1.00
1413;DHT22;701;52.526;13.408;2023-06-26T10:21:34;47.60;1.00
1413;DHT22;701;52.526;13.408;2023-06-26T10:24:03;47.20;1.00
1413;DHT22;701;52.526;13.408;2023-06-26T10:26:31;46.80;1.00
1413;DHT22;701;52.526;13.408;2023-06-26T10:28:58;46.40;1.00
1413;DHT22;701;52.526;13.408;2023-06-26T10:31:27;46.10;1.00
1413;DHT22;701;52.526;13.408;2023-06-26T10:33:54;45.70;1.00
1413;DHT22;701;52.526;13.408;2023-06-26T10:36:26;45.20;1.00
1413;DHT22;701;52.526;13.408;2023-06-26T10:38:56;44.90;1.00
1413;DHT22;701;52.526;13.408;2023-06-26T10:41:23;44.50;1.00
1413;DHT22;701;52.526;13.408;2023-06-26T10:43:51;44.20;1.00
1413;DHT22;701;52.526;13.408;2023-06-26T10:46:18;43.70;1.00
1413;DHT22;701;52.526;13.408;2023-06-26T10:49:00;43.10;1.00
1413;DHT22;701;52.526;13.408;2023-06-26T10:51:27;42.70;1.00
1413;DHT22;701;52.526;13.408;2023-06-26T10:53:55;42.40;1.00
1413;DHT22;701;52.526;13.408;2023-06-26T10:56:20;42.00;1.00
1413;DHT22;701;52.526;13.408;2023-06-26T10:58:47;41.60;1.00
1413;DHT22;701;52.526;13.408;2023-06-26T11:01:26;41.10;1.00
1413;DHT22;701;52.526;13.408;2023-06-26T11:04:04;40.90;1.00
1413;DHT22;701;52.526;13.408;2023-06-26T11:06:31;40.60;1.00
1413;DHT22;701;52.526;13.408;2023-06-26T11:09:06;40.30;1.00
1413;DHT22;701;52.526;13.408;2023-06-26T11:14:18;39.70;1.00
1413;DHT22;701;52.526;13.408;2023-06-26T11:16:44;39.40;1.00
1413;DHT22;701;52.526;13.408;2023-06-26T11:19:11;39.10;1.00
1413;DHT22;701;52.526;13.408;2023-06-26T11:21:40;38.80;1.00
1413;DHT22;701;52.526;13.408;2023-06-26T11:24:07;38.50;1.00
1413;DHT22;701;52.526;13.408;2023-06-26T11:26:43;38.30;1.00
1413;DHT22;701;52.526;13.408;2023-06-26T11:29:46;38.00;1.00
1413;DHT22;701;52.526;13.408;2023-06-26T11:32:13;37.70;1.00
1413;DHT22;701;52.526;13.408;2023-06-26T11:34:38;37.40;1.00
1413;DHT22;701;52.526;13.408;2023-06-26T11:37:05;37.20;1.00
1413;DHT22;701;52.526;13.408;2023-06-26T11:39:32;37.00;1.00
1413;DHT22;701;52.526;13.408;2023-06-26T11:41:59;36.70;1.00
1413;DHT22;701;52.526;13.408;2023-06-26T11:44:29;36.50;1.00
1413;DHT22;701;52.526;13.408;2023-06-26T11:46:56;36.20;1.00
1413;DHT22;701;52.526;13.408;2023-06-26T11:49:22;36.00;1.00
1413;DHT22;701;52.526;13.408;2023-06-26T11:51:51;35.80;1.00
1413;DHT22;701;52.526;13.408;2023-06-26T11:54:26;35.60;1.00
1413;DHT22;701;52.526;13.408;2023-06-26T11:56:57;35.40;1.00
1413;DHT22;701;52.526;13.408;2023-06-26T11:59:26;35.20;1.00
1413;DHT22;701;52.526;13.408;2023-06-26T12:01:56;35.00;1.00
1413;DHT22;701;52.526;13.408;2023-06-26T12:04:23;34.90;1.00
1413;DHT22;701;52.526;13.408;2023-06-26T12:06:52;34.70;1.00
1413;DHT22;701;52.526;13.408;2023-06-26T12:09:23;34.60;1.00
1413;DHT22;701;52.526;13.408;2023-06-26T12:11:53;34.40;1.00
1413;DHT22;701;52.526;13.408;2023-06-26T12:14:20;34.30;1.00
1413;DHT22;701;52.526;13.408;2023-06-26T12:16:47;34.30;1.00
1413;DHT22;701;52.526;13.408;2023-06-26T12:19:13;34.20;1.00
1413;DHT22;701;52.526;13.408;2023-06-26T12:24:17;34.20;1.00
1413;DHT22;701;52.526;13.408;2023-06-26T12:26:45;34.20;1.00
1413;DHT22;701;52.526;13.408;2023-06-26T12:29:18;34.20;1.00
1413;DHT22;701;52.526;13.408;2023-06-26T12:31:48;34.20;1.00
1413;DHT22;701;52.526;13.408;2023-06-26T12:34:18;34.20;1.00
1413;DHT22;701;52.526;13.408;2023-06-26T12:36:46;34.20;1.00
1413;DHT22;701;52.526;13.408;2023-06-26T12:39:16;34.10;1.00
1413;DHT22;701;52.526;13.408;2023-06-26T12:42:00;34.00;1.00
1413;DHT22;701;52.526;13.408;2023-06-26T12:44:30;34.00;1.00
1413;DHT22;701;52.526;13.408;2023-06-26T12:47:00;33.90;1.00
1413;DHT22;701;52.526;13.408;2023-06-26T12:49:34;33.90;1.00
1413;DHT22;701;52.526;13.408;2023-06-26T12:52:01;33.90;1.00
1413;DHT22;701;52.526;13.408;2023-06-26T12:54:27;33.90;1.00
1413;DHT22;701;52.526;13.408;2023-06-26T12:56:53;33.90;1.00
1413;DHT22;701;52.526;13.408;2023-06-26T12:59:20;33.90;1.00
1413;DHT22;701;52.526;13.408;2023-06-26T13:01:46;33.90;1.00
1413;DHT22;701;52.526;13.408;2023-06-26T13:04:12;33.80;1.00
1413;DHT22;701;52.526;13.408;2023-06-26T13:06:37;33.70;1.00
1413;DHT22;701;52.526;13.408;2023-06-26T13:09:03;33.50;1.00
1413;DHT22;701;52.526;13.408;2023-06-26T13:11:30;33.50;1.00
1413;DHT22;701;52.526;13.408;2023-06-26T13:13:56;33.50;1.00
1413;DHT22;701;52.526;13.408;2023-06-26T13:16:22;33.60;1.00
1413;DHT22;701;52.526;13.408;2023-06-26T13:18:48;33.60;1.00
1413;DHT22;701;52.526;13.408;2023-06-26T13:21:14;33.80;1.00
1413;DHT22;701;52.526;13.408;2023-06-26T13:23:40;33.90;1.00
1413;DHT22;701;52.526;13.408;2023-06-26T13:26:06;34.00;1.00
1413;DHT22;701;52.526;13.408;2023-06-26T13:28:32;34.00;1.00
1413;DHT22;701;52.526;13.408;2023-06-26T13:30:58;34.10;1.00
1413;DHT22;701;52.526;13.408;2023-06-26T13:33:24;34.00;1.00
1413;DHT22;701;52.526;13.408;2023-06-26T13:35:53;33.80;1.00
1413;DHT22;701;52.526;13.408;2023-06-26T13:38:20;33.60;1.00
1413;DHT22;701;52.526;13.408;2023-06-26T13:40:51;33.40;1.00
1413;DHT22;701;52.526;13.408;2023-06-26T13:43:17;33.30;1.00
1413;DHT22;701;52.526;13.408;2023-06-26T13:45:42;33.10;1.00
1413;DHT22;701;52.526;13.408;2023-06-26T13:48:08;33.00;1.00
1413;DHT22;701;52.526;13.408;2023-06-26T13:50:34;32.90;1.00
1413;DHT22;701;52.526;13.408;2023-06-26T13:53:00;32.80;1.00
1413;DHT22;701;52.526;13.408;2023-06-26T13:55:25;32.70;1.00
1413;DHT22;701;52.526;13.408;2023-06-26T13:57:51;32.70;1.00
1413;DHT22;701;52.526;13.408;2023-06-26T14:00:17;32.70;1.00
1413;DHT22;701;52.526;13.408;2023-06-26T14:02:46;32.60;1.00
1413;DHT22;701;52.526;13.408;2023-06-26T14:05:12;32.60;1.00
1413;DHT22;701;52.526;13.408;2023-06-26T14:07:37;32.60;1.00
1413;DHT22;701;52.526;13.408;2023-06-26T14:10:06;32.50;1.00
1413;DHT22;701;52.526;13.408;2023-06-26T14:12:32;32.40;1.00
1413;DHT22;701;52.526;13.408;2023-06-26T14:14:59;32.20;1.00
1413;DHT22;701;52.526;13.408;2023-06-26T14:17:24;32.00;1.00
1413;DHT22;701;52.526;13.408;2023-06-26T14:19:52;31.80;1.00
1413;DHT22;701;52.526;13.408;2023-06-26T14:22:18;31.70;1.00
1413;DHT22;701;52.526;13.408;2023-06-26T14:24:44;31.40;1.00
1413;DHT22;701;52.526;13.408;2023-06-26T14:27:10;31.00;1.00
1413;DHT22;701;52.526;13.408;2023-06-26T14:29:36;30.50;1.70
1413;DHT22;701;52.526;13.408;2023-06-26T14:32:03;29.80;6.30
1413;DHT22;701;52.526;13.408;2023-06-26T14:34:29;28.80;12.70
1413;DHT22;701;52.526;13.408;2023-06-26T14:36:55;27.60;13.80
1413;DHT22;701;52.526;13.408;2023-06-26T14:39:21;26.40;16.40
1413;DHT22;701;52.526;13.408;2023-06-26T14:41:47;25.50;19.70
1413;DHT22;701;52.526;13.408;2023-06-26T14:44:16;24.70;21.10
1413;DHT22;701;52.526;13.408;2023-06-26T14:46:42;24.00;23.60
1413;DHT22;701;52.526;13.408;2023-06-26T14:49:08;23.50;24.90
1413;DHT22;701;52.526;13.408;2023-06-26T14:51:33;23.10;26.60
1413;DHT22;701;52.526;13.408;2023-06-26T14:54:00;22.80;28.20
1413;DHT22;701;52.526;13.408;2023-06-26T14:56:26;22.50;30.00
1413;DHT22;701;52.526;13.408;2023-06-26T14:58:52;22.30;31.40
1413;DHT22;701;52.526;13.408;2023-06-26T15:01:20;22.10;34.20
1413;DHT22;701;52.526;13.408;2023-06-26T15:03:47;22.00;36.40
1413;DHT22;701;52.526;13.408;2023-06-26T15:06:13;21.90;37.10
1413;DHT22;701;52.526;13.408;2023-06-26T15:08:39;21.80;40.40
1413;DHT22;701;52.526;13.408;2023-06-26T15:11:05;21.80;41.50
1413;DHT22;701;52.526;13.408;2023-06-26T15:13:30;21.80;42.90
1413;DHT22;701;52.526;13.408;2023-06-26T15:15:56;21.80;43.90
1413;DHT22;701;52.526;13.408;2023-06-26T15:18:22;21.70;44.10
1413;DHT22;701;52.526;13.408;2023-06-26T15:20:48;21.70;45.20
1413;DHT22;701;52.526;13.408;2023-06-26T15:23:13;21.70;45.60
1413;DHT22;701;52.526;13.408;2023-06-26T15:25:39;21.60;45.70
1413;DHT22;701;52.526;13.408;2023-06-26T15:28:05;21.50;44.60
1413;DHT22;701;52.526;13.408;2023-06-26T15:30:32;21.40;44.70
1413;DHT22;701;52.526;13.408;2023-06-26T15:32:58;21.40;44.80
1413;DHT22;701;52.526;13.408;2023-06-26T15:35:23;21.50;45.50
1413;DHT22;701;52.526;13.408;2023-06-26T15:37:49;21.50;45.10
1413;DHT22;701;52.526;13.408;2023-06-26T15:40:15;21.70;44.30
1413;DHT22;701;52.526;13.408;2023-06-26T15:42:49;21.80;44.10
1413;DHT22;701;52.526;13.408;2023-06-26T15:45:16;22.00;44.20
1413;DHT22;701;52.526;13.408;2023-06-26T15:47:47;22.20;43.00
1413;DHT22;701;52.526;13.408;2023-06-26T15:50:13;22.30;41.90
1413;DHT22;701;52.526;13.408;2023-06-26T15:52:39;22.40;40.90
1413;DHT22;701;52.526;13.408;2023-06-26T15:55:05;22.60;40.30
1413;DHT22;701;52.526;13.408;2023-06-26T15:57:31;22.70;40.00
1413;DHT22;701;52.526;13.408;2023-06-26T15:59:58;22.70;38.90
1413;DHT22;701;52.526;13.408;2023-06-26T16:02:24;22.70;39.10
1413;DHT22;701;52.526;13.408;2023-06-26T16:04:50;22.70;38.80
1413;DHT22;701;52.526;13.408;2023-06-26T16:07:16;22.80;38.70
1413;DHT22;701;52.526;13.408;2023-06-26T16:09:41;22.90;38.30
1413;DHT22;701;52.526;13.408;2023-06-26T16:12:07;23.00;38.00
1413;DHT22;701;52.526;13.408;2023-06-26T16:14:33;23.10;38.10
1413;DHT22;701;52.526;13.408;2023-06-26T16:16:59;23.20;38.20
1413;DHT22;701;52.526;13.408;2023-06-26T16:19:26;23.40;37.40
1413;DHT22;701;52.526;13.408;2023-06-26T16:21:52;23.60;38.20